createdAt,value
2022-11-20T00:02:40.350Z,3.06
2022-11-20T00:05:43.239Z,3.03
2022-11-20T00:08:46.082Z,3.18
2022-11-20T00:11:49.071Z,3.33
2022-11-20T00:14:51.663Z,3.25
2022-11-20T00:17:54.563Z,3.12
2022-11-20T00:21:09.222Z,3.09
2022-11-20T00:24:12.283Z,3.10
2022-11-20T00:27:14.779Z,3.12
2022-11-20T00:30:17.806Z,3.10
2022-11-20T00:33:20.479Z,3.09
2022-11-20T00:36:25.735Z,3.13
2022-11-20T00:39:28.363Z,3.19
2022-11-20T00:42:33.810Z,3.17
2022-11-20T00:45:36.398Z,3.37
2022-11-20T00:48:39.352Z,3.32
2022-11-20T00:51:41.911Z,3.40
2022-11-20T00:54:44.854Z,3.26
2022-11-20T00:57:47.376Z,3.42
2022-11-20T01:00:50.872Z,3.26
2022-11-20T01:03:55.429Z,3.35
2022-11-20T01:06:58.380Z,3.46
2022-11-20T01:10:00.997Z,3.49
2022-11-20T01:13:25.664Z,3.46
2022-11-20T01:16:32.802Z,3.53
2022-11-20T01:19:35.728Z,3.38
2022-11-20T01:22:38.286Z,2.99
2022-11-20T01:25:41.217Z,2.83
2022-11-20T01:28:44.128Z,2.81
2022-11-20T01:31:47.170Z,2.97
2022-11-20T01:34:49.678Z,3.06
2022-11-20T01:37:52.636Z,3.04
2022-11-20T01:40:57.619Z,2.99
2022-11-20T01:44:01.425Z,2.81
2022-11-20T01:47:06.262Z,2.79
2022-11-20T01:50:17.969Z,2.76
2022-11-20T01:53:25.143Z,3.04
2022-11-20T01:56:29.942Z,2.91
2022-11-20T01:59:32.734Z,3.08
2022-11-20T02:02:37.622Z,3.28
2022-11-20T02:05:48.957Z,3.29
2022-11-20T02:08:52.946Z,3.29
2022-11-20T02:11:57.144Z,3.30
2022-11-20T02:14:59.822Z,3.41
2022-11-20T02:18:02.739Z,3.47
2022-11-20T02:21:14.464Z,3.53
2022-11-20T02:24:19.758Z,3.53
2022-11-20T02:27:23.500Z,3.52
2022-11-20T02:30:26.354Z,3.58
2022-11-20T02:33:28.962Z,3.57
2022-11-20T02:36:35.065Z,3.66
2022-11-20T02:39:37.756Z,3.57
2022-11-20T02:42:41.344Z,3.70
2022-11-20T02:45:44.301Z,3.64
2022-11-20T02:48:47.129Z,3.76
2022-11-20T02:51:50.826Z,3.73
2022-11-20T02:54:54.394Z,3.61
2022-11-20T02:57:57.857Z,3.63
2022-11-20T03:01:01.213Z,3.62
2022-11-20T03:04:04.069Z,3.62
2022-11-20T03:07:07.131Z,3.70
2022-11-20T03:10:10.078Z,3.74
2022-11-20T03:13:12.976Z,3.68
2022-11-20T03:16:20.882Z,3.57
2022-11-20T03:19:24.155Z,3.63
2022-11-20T03:22:26.840Z,3.64
2022-11-20T03:25:29.848Z,3.56
2022-11-20T03:28:32.474Z,3.46
2022-11-20T03:31:43.810Z,3.72
2022-11-20T03:34:46.347Z,3.74
2022-11-20T03:37:49.663Z,3.33
2022-11-20T03:40:52.266Z,3.45
2022-11-20T03:43:57.929Z,3.47
2022-11-20T03:47:00.480Z,3.29
2022-11-20T03:50:04.211Z,2.95
2022-11-20T03:53:06.834Z,3.17
2022-11-20T03:56:11.331Z,3.22
2022-11-20T03:59:14.042Z,3.14
2022-11-20T04:02:16.879Z,3.11
2022-11-20T04:05:19.894Z,3.03
2022-11-20T04:08:22.560Z,3.04
2022-11-20T04:11:31.440Z,3.02
2022-11-20T04:14:34.042Z,2.90
2022-11-20T04:17:37.115Z,2.98
2022-11-20T04:20:39.757Z,2.71
2022-11-20T04:23:42.638Z,2.86
2022-11-20T04:26:45.207Z,3.01
2022-11-20T04:29:48.140Z,2.95
2022-11-20T04:32:50.694Z,2.98
2022-11-20T04:35:53.613Z,3.11
2022-11-20T04:39:01.298Z,3.11
2022-11-20T04:42:23.131Z,3.10
2022-11-20T04:45:25.731Z,3.13
2022-11-20T04:48:30.397Z,3.15
2022-11-20T04:51:33.942Z,3.15
2022-11-20T04:54:36.845Z,3.15
2022-11-20T04:57:39.403Z,3.25
2022-11-20T05:00:42.421Z,3.27
2022-11-20T05:03:46.099Z,3.03
2022-11-20T05:06:49.259Z,3.13
2022-11-20T05:09:51.810Z,3.16
2022-11-20T05:12:54.888Z,3.11
2022-11-20T05:16:03.372Z,3.15
2022-11-20T05:19:06.246Z,3.16
2022-11-20T05:22:08.784Z,3.21
2022-11-20T05:25:12.881Z,3.16
2022-11-20T05:28:15.399Z,3.18
2022-11-20T05:31:28.162Z,3.10
2022-11-20T05:34:31.129Z,3.20
2022-11-20T05:37:34.142Z,3.37
2022-11-20T05:40:37.302Z,3.32
2022-11-20T05:43:41.731Z,3.33
2022-11-20T05:46:44.325Z,3.39
2022-11-20T05:49:47.300Z,3.36
2022-11-20T05:52:50.880Z,3.26
2022-11-20T05:56:02.133Z,3.18
2022-11-20T05:59:04.733Z,3.32
2022-11-20T06:02:07.608Z,3.39
2022-11-20T06:05:10.544Z,3.34
2022-11-20T06:08:13.265Z,3.20
2022-11-20T06:11:17.566Z,3.17
2022-11-20T06:14:20.245Z,2.65
2022-11-20T06:17:23.113Z,2.40
2022-11-20T06:20:25.735Z,2.47
2022-11-20T06:23:30.455Z,2.69
2022-11-20T06:26:33.136Z,2.79
2022-11-20T06:29:36.144Z,2.89
2022-11-20T06:32:38.771Z,2.84
2022-11-20T06:35:41.717Z,2.88
2022-11-20T06:38:44.562Z,2.91
2022-11-20T06:41:47.651Z,2.96
2022-11-20T06:44:50.225Z,2.82
2022-11-20T06:47:53.236Z,2.90
2022-11-20T06:50:56.402Z,2.89
2022-11-20T06:53:59.307Z,2.92
2022-11-20T06:57:02.015Z,2.90
2022-11-20T07:00:05.436Z,2.90
2022-11-20T07:03:10.112Z,2.93
2022-11-20T07:06:12.991Z,2.88
2022-11-20T07:09:15.859Z,2.87
2022-11-20T07:12:18.770Z,2.86
2022-11-20T07:15:23.495Z,2.84
2022-11-20T07:18:26.349Z,2.87
2022-11-20T07:21:29.007Z,2.91
2022-11-20T07:24:31.887Z,2.87
2022-11-20T07:27:34.569Z,2.88
2022-11-20T07:30:37.603Z,2.92
2022-11-20T07:33:40.434Z,2.88
2022-11-20T07:36:43.357Z,2.88
2022-11-20T07:39:46.119Z,2.86
2022-11-20T07:42:56.359Z,2.88
2022-11-20T07:46:01.181Z,2.89
2022-11-20T07:49:05.811Z,2.78
2022-11-20T07:52:10.541Z,2.83
2022-11-20T07:55:16.440Z,2.93
2022-11-20T07:58:21.249Z,2.96
2022-11-20T08:01:24.132Z,2.92
2022-11-20T08:04:27.121Z,2.91
2022-11-20T08:07:29.703Z,3.00
2022-11-20T08:10:32.926Z,2.99
2022-11-20T08:13:54.291Z,3.11
2022-11-20T08:16:57.531Z,3.22
2022-11-20T08:20:00.256Z,3.29
2022-11-20T08:23:06.517Z,3.23
2022-11-20T08:26:09.168Z,3.27
2022-11-20T08:29:12.287Z,3.22
2022-11-20T08:32:14.938Z,3.33
2022-11-20T08:35:17.971Z,3.28
2022-11-20T08:38:20.586Z,3.28
2022-11-20T08:41:27.840Z,3.36
2022-11-20T08:44:30.420Z,3.40
2022-11-20T08:47:33.352Z,3.30
2022-11-20T08:50:37.391Z,3.37
2022-11-20T08:53:41.346Z,3.43
2022-11-20T08:56:43.905Z,3.52
2022-11-20T09:03:09.856Z,3.54
2022-11-20T09:06:13.540Z,3.65
2022-11-20T09:09:16.100Z,3.50
2022-11-20T09:12:19.450Z,3.55
2022-11-20T09:15:22.760Z,3.67
2022-11-20T09:18:26.876Z,3.57
2022-11-20T09:21:30.089Z,3.62
2022-11-20T09:24:33.012Z,3.61
2022-11-20T09:27:36.778Z,3.65
2022-11-20T09:30:39.774Z,3.85
2022-11-20T09:33:42.458Z,4.21
2022-11-20T09:36:46.286Z,4.12
2022-11-20T09:39:48.871Z,4.15
2022-11-20T09:43:07.425Z,4.35
2022-11-20T09:46:13.008Z,4.42
2022-11-20T09:49:33.716Z,4.30
2022-11-20T09:52:48.636Z,4.31
2022-11-20T09:55:52.301Z,4.24
2022-11-20T09:59:03.410Z,4.24
2022-11-20T10:02:31.858Z,4.36
2022-11-20T10:05:48.321Z,4.46
2022-11-20T10:09:08.110Z,4.45
2022-11-20T10:12:22.951Z,4.53
2022-11-20T10:15:37.302Z,4.82
2022-11-20T10:18:46.443Z,5.05
2022-11-20T10:21:58.046Z,5.22
2022-11-20T10:25:19.365Z,5.42
2022-11-20T10:28:41.077Z,5.28
2022-11-20T10:31:48.149Z,5.32
2022-11-20T10:35:26.828Z,5.73
2022-11-20T10:38:44.304Z,5.72
2022-11-20T10:41:52.079Z,6.02
2022-11-20T10:45:14.733Z,6.05
2022-11-20T10:48:28.662Z,6.01
2022-11-20T10:51:50.748Z,6.34
2022-11-20T10:55:07.267Z,6.60
2022-11-20T10:58:32.956Z,7.43
2022-11-20T11:01:42.917Z,8.39
2022-11-20T11:04:54.730Z,9.21
2022-11-20T11:07:59.811Z,8.98
2022-11-20T11:11:19.511Z,9.07
2022-11-20T11:14:22.133Z,8.86
2022-11-20T11:17:33.504Z,8.36
2022-11-20T11:20:36.080Z,7.68
2022-11-20T11:23:44.290Z,7.75
2022-11-20T11:27:12.381Z,7.65
2022-11-20T11:30:21.177Z,7.42
2022-11-20T11:33:35.020Z,7.69
2022-11-20T11:36:38.153Z,7.38
2022-11-20T11:39:43.263Z,7.21
2022-11-20T11:42:55.141Z,7.27
2022-11-20T11:45:58.311Z,7.47
2022-11-20T11:49:10.370Z,7.21
2022-11-20T11:52:17.549Z,7.13
2022-11-20T11:55:29.062Z,7.04
2022-11-20T11:58:53.247Z,6.85
2022-11-20T12:02:02.441Z,6.75
2022-11-20T12:05:44.716Z,6.70
2022-11-20T12:08:49.933Z,6.82
2022-11-20T12:12:04.674Z,6.60
2022-11-20T12:15:14.108Z,6.43
2022-11-20T12:18:21.273Z,6.52
2022-11-20T12:21:24.055Z,6.43
2022-11-20T12:24:42.206Z,6.46
2022-11-20T12:27:51.385Z,6.34
2022-11-20T12:31:32.137Z,6.35
2022-11-20T12:35:00.557Z,6.39
2022-11-20T12:38:18.977Z,6.48
2022-11-20T12:42:00.192Z,6.90
2022-11-20T12:45:28.037Z,7.41
2022-11-20T12:48:46.791Z,7.37
2022-11-20T12:52:21.064Z,7.00
2022-11-20T12:55:42.458Z,7.35
2022-11-20T12:59:21.452Z,7.73
2022-11-20T13:02:39.063Z,8.09
2022-11-20T13:05:45.611Z,8.38
2022-11-20T13:08:55.805Z,8.80
2022-11-20T13:12:15.687Z,9.00
2022-11-20T13:15:54.207Z,9.51
2022-11-20T13:18:57.737Z,9.58
2022-11-20T13:22:00.562Z,9.99
2022-11-20T13:25:04.093Z,10.07
2022-11-20T13:28:30.809Z,9.73
2022-11-20T13:31:36.513Z,8.88
2022-11-20T13:34:40.692Z,8.56
2022-11-20T13:37:45.250Z,8.23
2022-11-20T13:40:56.180Z,8.08
2022-11-20T13:44:09.124Z,7.81
2022-11-20T13:47:27.516Z,7.58
2022-11-20T13:50:50.712Z,7.39
2022-11-20T13:54:22.717Z,7.20
2022-11-20T13:57:51.504Z,7.17
2022-11-20T14:01:11.149Z,6.96
2022-11-20T14:04:28.041Z,6.82
2022-11-20T14:07:42.597Z,6.73
2022-11-20T14:10:46.204Z,6.68
2022-11-20T14:14:06.420Z,6.62
2022-11-20T14:17:19.399Z,6.42
2022-11-20T14:20:27.033Z,6.17
2022-11-20T14:23:30.944Z,6.23
2022-11-20T14:26:37.533Z,6.19
2022-11-20T14:29:42.143Z,6.21
2022-11-20T14:32:47.551Z,6.08
2022-11-20T14:35:56.602Z,6.09
2022-11-20T14:38:59.540Z,5.92
2022-11-20T14:42:04.463Z,5.87
2022-11-20T14:45:13.279Z,5.78
2022-11-20T14:48:17.089Z,5.74
2022-11-20T14:51:48.014Z,5.72
2022-11-20T14:54:53.605Z,5.66
2022-11-20T14:57:58.619Z,5.43
2022-11-20T15:01:08.136Z,5.40
2022-11-20T15:04:13.070Z,5.36
2022-11-20T15:07:31.547Z,5.27
2022-11-20T15:10:34.427Z,5.17
2022-11-20T15:13:40.751Z,5.06
2022-11-20T15:16:43.460Z,4.99
2022-11-20T15:19:46.688Z,4.89
2022-11-20T15:22:49.385Z,4.79
2022-11-20T15:25:52.597Z,4.64
2022-11-20T15:28:55.920Z,4.55
2022-11-20T15:31:59.883Z,4.44
2022-11-20T15:35:03.015Z,4.43
2022-11-20T15:38:06.493Z,4.31
2022-11-20T15:41:09.831Z,4.26
2022-11-20T15:44:13.283Z,4.25
2022-11-20T15:47:16.394Z,4.11
2022-11-20T15:50:19.929Z,4.04
2022-11-20T15:53:23.203Z,4.00
2022-11-20T15:56:27.699Z,4.01
2022-11-20T15:59:30.914Z,4.00
2022-11-20T16:02:34.258Z,3.93
2022-11-20T16:05:37.648Z,3.91
2022-11-20T16:08:40.614Z,3.71
2022-11-20T16:11:43.975Z,3.71
2022-11-20T16:15:08.229Z,3.74
2022-11-20T16:18:25.158Z,3.70
2022-11-20T16:21:32.709Z,3.70
2022-11-20T16:24:36.154Z,3.68
2022-11-20T16:27:39.832Z,3.67
2022-11-20T16:30:43.807Z,3.63
2022-11-20T16:33:54.328Z,3.37
2022-11-20T16:36:57.363Z,3.09
2022-11-20T16:40:01.367Z,2.78
2022-11-20T16:43:15.668Z,2.91
2022-11-20T16:46:20.750Z,2.75
2022-11-20T16:49:26.046Z,2.74
2022-11-20T16:52:33.271Z,2.80
2022-11-20T16:55:37.516Z,2.59
2022-11-20T16:58:40.680Z,2.44
2022-11-20T17:01:45.254Z,2.39
2022-11-20T17:08:10.003Z,2.30
2022-11-20T17:11:15.383Z,2.14
2022-11-20T17:14:18.894Z,2.21
2022-11-20T17:17:21.608Z,2.19
2022-11-20T17:20:25.037Z,2.25
2022-11-20T17:23:33.235Z,2.15
2022-11-20T17:26:38.853Z,2.30
2022-11-20T17:29:42.384Z,2.18
2022-11-20T17:32:47.625Z,1.96
2022-11-20T17:35:50.698Z,1.95
2022-11-20T17:38:54.080Z,1.98
2022-11-20T17:42:16.105Z,1.82
2022-11-20T17:45:19.518Z,1.86
2022-11-20T17:48:22.986Z,1.59
2022-11-20T17:51:28.449Z,1.59
2022-11-20T17:54:33.284Z,1.68
2022-11-20T17:57:56.880Z,1.63
2022-11-20T18:01:06.485Z,1.53
2022-11-20T18:04:11.243Z,1.37
2022-11-20T18:07:14.352Z,1.60
2022-11-20T18:10:17.952Z,1.67
2022-11-20T18:13:21.193Z,1.65
2022-11-20T18:16:27.638Z,1.60
2022-11-20T18:19:42.720Z,1.38
2022-11-20T18:22:54.473Z,1.35
2022-11-20T18:26:01.195Z,1.19
2022-11-20T18:29:07.405Z,1.21
2022-11-20T18:32:10.734Z,0.99
2022-11-20T18:35:14.309Z,1.02
2022-11-20T18:38:18.038Z,0.99
2022-11-20T18:41:44.051Z,1.05
2022-11-20T18:44:53.368Z,1.08
2022-11-20T18:47:56.942Z,1.00
2022-11-20T18:51:09.356Z,1.12
2022-11-20T18:54:13.558Z,1.22
2022-11-20T18:57:21.571Z,1.22
2022-11-20T19:00:25.411Z,0.95
2022-11-20T19:03:28.764Z,0.94
2022-11-20T19:06:32.339Z,0.74
2022-11-20T19:09:35.837Z,0.82
2022-11-20T19:12:39.311Z,0.89
2022-11-20T19:15:42.574Z,1.00
2022-11-20T19:18:46.333Z,1.15
2022-11-20T19:21:50.954Z,1.31
2022-11-20T19:24:54.415Z,1.26
2022-11-20T19:27:57.803Z,1.05
2022-11-20T19:31:09.521Z,1.06
2022-11-20T19:34:12.722Z,1.07
2022-11-20T19:37:16.112Z,0.97
2022-11-20T19:40:19.312Z,1.02
2022-11-20T19:43:22.791Z,1.00
2022-11-20T19:46:27.098Z,0.91
2022-11-20T19:49:30.530Z,0.79
2022-11-20T19:52:34.603Z,0.80
2022-11-20T19:55:39.451Z,0.65
2022-11-20T19:58:43.149Z,0.50
2022-11-20T20:01:47.403Z,0.45
2022-11-20T20:04:50.553Z,0.42
2022-11-20T20:07:53.656Z,0.54
2022-11-20T20:10:59.606Z,0.54
2022-11-20T20:14:08.906Z,0.69
2022-11-20T20:17:13.176Z,0.93
2022-11-20T20:20:19.150Z,1.02
2022-11-20T20:23:23.707Z,1.11
2022-11-20T20:26:28.813Z,1.19
2022-11-20T20:29:32.830Z,1.00
2022-11-20T20:32:36.781Z,1.06
2022-11-20T20:35:43.507Z,0.87
2022-11-20T20:38:47.024Z,0.70
2022-11-20T20:41:50.799Z,0.59
2022-11-20T20:45:08.612Z,0.61
2022-11-20T20:48:15.077Z,0.75
2022-11-20T20:51:18.125Z,0.82
2022-11-20T20:54:21.794Z,0.74
2022-11-20T20:57:25.617Z,0.66
2022-11-20T21:00:29.979Z,0.78
2022-11-20T21:03:34.619Z,0.67
2022-11-20T21:06:38.050Z,0.73
2022-11-20T21:09:41.141Z,0.71
2022-11-20T21:12:44.132Z,0.63
2022-11-20T21:15:51.593Z,0.64
2022-11-20T21:18:56.633Z,0.56
2022-11-20T21:21:59.484Z,0.55
2022-11-20T21:25:02.390Z,0.55
2022-11-20T21:28:05.067Z,0.51
2022-11-20T21:31:09.288Z,0.51
2022-11-20T21:34:13.340Z,0.30
2022-11-20T21:37:16.532Z,0.34
2022-11-20T21:40:19.117Z,0.18
2022-11-20T21:43:22.549Z,0.46
2022-11-20T21:46:25.352Z,0.50
2022-11-20T21:49:28.353Z,0.66
2022-11-20T21:52:30.957Z,0.49
2022-11-20T21:55:33.936Z,0.38
2022-11-20T21:58:38.008Z,0.19
2022-11-20T22:01:41.811Z,0.23
2022-11-20T22:04:44.831Z,0.51
2022-11-20T22:07:47.384Z,0.42
2022-11-20T22:10:56.845Z,0.29
2022-11-20T22:14:18.175Z,0.14
2022-11-20T22:17:41.022Z,0.16
2022-11-20T22:20:43.753Z,0.05
2022-11-20T22:23:46.865Z,0.19
2022-11-20T22:26:49.989Z,0.22
2022-11-20T22:29:52.940Z,0.26
2022-11-20T22:32:56.574Z,0.31
2022-11-20T22:36:02.915Z,0.32
2022-11-20T22:39:06.177Z,0.32
2022-11-20T22:42:09.099Z,0.41
2022-11-20T22:45:12.197Z,0.36
2022-11-20T22:48:15.134Z,0.11
2022-11-20T22:51:20.401Z,0.07
2022-11-20T22:54:23.437Z,0.10
2022-11-20T22:57:26.128Z,-0.23
2022-11-20T23:00:29.097Z,-0.23
2022-11-20T23:03:31.771Z,-0.36
2022-11-20T23:06:34.963Z,-0.21
2022-11-20T23:09:37.526Z,-0.31
2022-11-20T23:12:40.747Z,-0.24
2022-11-20T23:15:44.575Z,-0.19
2022-11-20T23:18:48.721Z,-0.13
2022-11-20T23:21:51.359Z,-0.32
2022-11-20T23:24:54.297Z,-0.26
2022-11-20T23:27:56.853Z,-0.21
2022-11-20T23:30:59.967Z,-0.20
2022-11-20T23:34:02.765Z,0.07
2022-11-20T23:37:05.663Z,-0.01
2022-11-20T23:40:08.592Z,-0.11
2022-11-20T23:43:17.373Z,-0.07
2022-11-20T23:46:20.029Z,-0.07
2022-11-20T23:49:22.942Z,-0.20
2022-11-20T23:52:26.588Z,-0.38
2022-11-20T23:55:29.771Z,-0.23
2022-11-20T23:58:35.567Z,-0.50
